Accueil
METAR-TAF:

METAR-TAF

Aéroports :

Middleton Field

Evergreen, Alabama, États-Unis

latitude: 31-25-08N, longitude: 087-02-53W, altitude: 78 m

Observation

Le bulletin a été fait il y a 21 minutes, à 16:53 UTC
Vent 3 kt de direction variable
Température 23°C
Humidité 83%
Pression 1018 hPa
Visibilité: 16.1 km
Quelques nuages à une hauteur de 2200 ft
Nuages épars à une hauteur de 5500 ft
Nuages fragmentés à une hauteur de 8000 ft
pluie faible

METAR: KGZH 211653Z AUTO VRB03KT 10SM -RA FEW022 SCT055 BKN080 23/20 A3006 RMK AO2 LTG DSNT N-SE RAB11 TSB27E44 SLP178 P0001 T02330200

Heure: 12:14 (17:14 UTC)


TAF: absent

Observations et prévisions météorologiques de plus de 4000 aéroports (messages METAR et TAF).

Les stations disponibles sont représentées par des disques jaunes et rouges sur la carte.

Passer la souris dessus pour voir le nom de la station.

Cliquer dessus pour voir les observations et prévisions météorologiques.

Pour changer de carte: cliquez sur les boutons verts avec une croix noire pour zoomer, sur le bouton vert avec un tiret pour effectuer un zoom arrière, ou sur les flèches vertes pour les cartes adjacentes.


METAR-TAF: